createdAt,value
2023-05-06T00:00:56.963Z,15.53
2023-05-06T00:03:59.899Z,15.53
2023-05-06T00:07:04.209Z,15.55
2023-05-06T00:10:08.083Z,15.52
2023-05-06T00:13:11.229Z,15.46
2023-05-06T00:16:14.328Z,15.45
2023-05-06T00:19:17.134Z,15.41
2023-05-06T00:22:21.186Z,15.42
2023-05-06T00:25:24.170Z,15.41
2023-05-06T00:28:26.922Z,15.35
2023-05-06T00:31:29.603Z,15.28
2023-05-06T00:34:32.400Z,15.20
2023-05-06T00:37:36.605Z,15.19
2023-05-06T00:40:40.326Z,15.18
2023-05-06T00:43:43.024Z,15.13
2023-05-06T00:46:45.805Z,15.14
2023-05-06T00:49:49.470Z,15.10
2023-05-06T00:52:54.686Z,15.10
2023-05-06T00:55:57.513Z,15.05
2023-05-06T00:59:00.944Z,15.06
2023-05-06T01:02:04.440Z,15.07
2023-05-06T01:05:08.870Z,15.05
2023-05-06T01:08:22.487Z,15.04
2023-05-06T01:11:32.419Z,15.05
2023-05-06T01:14:41.460Z,15.08
2023-05-06T01:17:46.754Z,15.06
2023-05-06T01:20:51.870Z,15.02
2023-05-06T01:23:58.211Z,15.01
2023-05-06T01:27:01.501Z,14.99
2023-05-06T01:30:04.652Z,14.98
2023-05-06T01:33:15.331Z,14.95
2023-05-06T01:36:24.092Z,14.98
2023-05-06T01:39:31.900Z,14.94
2023-05-06T01:42:35.769Z,14.89
2023-05-06T01:45:40.489Z,14.84
2023-05-06T01:48:44.638Z,14.85
2023-05-06T01:51:49.324Z,14.87
2023-05-06T01:54:53.399Z,14.87
2023-05-06T01:57:56.520Z,14.90
2023-05-06T02:00:59.373Z,14.93
2023-05-06T02:04:02.481Z,14.94
2023-05-06T02:07:05.425Z,14.91
2023-05-06T02:10:10.352Z,14.91
2023-05-06T02:13:13.156Z,14.92
2023-05-06T02:16:15.890Z,14.96
2023-05-06T02:19:19.164Z,15.02
2023-05-06T02:22:21.910Z,15.03
2023-05-06T02:25:26.074Z,15.02
2023-05-06T02:28:28.871Z,14.99
2023-05-06T02:31:32.122Z,14.97
2023-05-06T02:34:34.893Z,14.92
2023-05-06T02:37:37.686Z,14.86
2023-05-06T02:40:41.796Z,14.84
2023-05-06T02:43:44.496Z,14.83
2023-05-06T02:46:47.209Z,14.83
2023-05-06T02:49:49.876Z,14.80
2023-05-06T02:52:52.586Z,14.80
2023-05-06T02:55:56.769Z,14.75
2023-05-06T02:58:59.568Z,14.75
2023-05-06T03:02:02.297Z,14.71
2023-05-06T03:05:05.474Z,14.73
2023-05-06T03:08:08.241Z,14.76
2023-05-06T03:11:12.278Z,14.78
2023-05-06T03:14:14.979Z,14.85
2023-05-06T03:17:17.736Z,14.83
2023-05-06T03:20:20.610Z,14.87
2023-05-06T03:23:23.354Z,14.86
2023-05-06T03:26:27.588Z,14.86
2023-05-06T03:29:30.868Z,14.85
2023-05-06T03:32:33.663Z,14.82
2023-05-06T03:35:36.479Z,14.84
2023-05-06T03:38:39.289Z,14.84
2023-05-06T03:41:43.462Z,14.84
2023-05-06T03:44:46.187Z,14.81
2023-05-06T03:47:48.878Z,14.78
2023-05-06T03:50:52.508Z,14.70
2023-05-06T03:53:56.500Z,14.68
2023-05-06T03:57:01.199Z,14.66
2023-05-06T04:00:04.116Z,14.54
2023-05-06T04:03:06.931Z,14.51
2023-05-06T04:06:09.751Z,14.48
2023-05-06T04:09:12.483Z,14.44
2023-05-06T04:12:16.569Z,14.38
2023-05-06T04:15:19.720Z,14.33
2023-05-06T04:18:22.450Z,14.28
2023-05-06T04:21:25.380Z,14.20
2023-05-06T04:24:29.481Z,14.11
2023-05-06T04:27:33.640Z,14.02
2023-05-06T04:30:36.649Z,13.96
2023-05-06T04:33:39.359Z,13.95
2023-05-06T04:36:42.059Z,13.98
2023-05-06T04:39:47.493Z,13.99
2023-05-06T04:42:52.163Z,13.95
2023-05-06T04:45:55.450Z,13.95
2023-05-06T04:48:58.342Z,13.98
2023-05-06T04:52:01.276Z,14.03
2023-05-06T04:55:04.240Z,14.04
2023-05-06T04:58:08.745Z,14.09
2023-05-06T05:01:11.848Z,14.13
2023-05-06T05:04:14.609Z,14.14
2023-05-06T05:07:17.400Z,14.16
2023-05-06T05:10:20.447Z,14.19
2023-05-06T05:13:24.548Z,14.26
2023-05-06T05:16:27.422Z,14.29
2023-05-06T05:19:30.121Z,14.34
2023-05-06T05:22:32.881Z,14.39
2023-05-06T05:25:35.643Z,14.48
2023-05-06T05:28:39.816Z,14.54
2023-05-06T05:31:42.960Z,14.64
2023-05-06T05:34:45.816Z,14.76
2023-05-06T05:37:49.227Z,14.83
2023-05-06T05:40:52.064Z,14.95
2023-05-06T05:43:56.170Z,15.04
2023-05-06T05:46:58.878Z,15.16
2023-05-06T05:50:01.642Z,15.25
2023-05-06T05:53:05.613Z,15.34
2023-05-06T05:56:08.625Z,15.44
2023-05-06T05:59:12.813Z,15.51
2023-05-06T06:02:15.592Z,15.59
2023-05-06T06:05:18.402Z,15.71
2023-05-06T06:08:21.150Z,15.78
2023-05-06T06:11:25.376Z,15.88
2023-05-06T06:14:29.505Z,16.05
2023-05-06T06:17:32.205Z,16.09
2023-05-06T06:20:35.000Z,16.15
2023-05-06T06:23:37.778Z,16.16
2023-05-06T06:26:40.654Z,16.23
2023-05-06T06:29:44.968Z,16.32
2023-05-06T06:32:52.082Z,16.40
2023-05-06T06:35:55.054Z,16.51
2023-05-06T06:38:57.933Z,16.66
2023-05-06T06:42:04.287Z,16.78
2023-05-06T06:45:09.852Z,16.91
2023-05-06T06:48:12.981Z,16.97
2023-05-06T06:51:15.929Z,17.04
2023-05-06T06:54:18.945Z,17.16
2023-05-06T06:57:21.953Z,17.22
2023-05-06T07:00:26.684Z,17.36
2023-05-06T07:03:29.718Z,17.58
2023-05-06T07:06:32.684Z,17.71
2023-05-06T07:09:35.897Z,17.74
2023-05-06T07:12:39.013Z,17.67
2023-05-06T07:15:43.948Z,17.56
2023-05-06T07:18:46.744Z,17.48
2023-05-06T07:21:49.795Z,17.40
2023-05-06T07:24:52.659Z,17.47
2023-05-06T07:27:55.574Z,17.62
2023-05-06T07:31:02.509Z,17.99
2023-05-06T07:34:05.455Z,18.44
2023-05-06T07:37:11.122Z,18.84
2023-05-06T07:40:14.482Z,18.97
2023-05-06T07:43:17.308Z,18.82
2023-05-06T07:46:21.810Z,18.60
2023-05-06T07:49:25.433Z,18.52
2023-05-06T07:52:28.708Z,18.40
2023-05-06T07:55:32.782Z,18.19
2023-05-06T07:58:37.765Z,18.11
2023-05-06T08:01:42.056Z,17.96
2023-05-06T08:04:46.306Z,17.80
2023-05-06T08:07:50.319Z,17.71
2023-05-06T08:10:53.215Z,17.78
2023-05-06T08:13:56.055Z,18.20
2023-05-06T08:17:03.938Z,18.58
2023-05-06T08:20:08.332Z,18.86
2023-05-06T08:23:11.276Z,18.98
2023-05-06T08:26:14.232Z,18.97
2023-05-06T08:29:17.428Z,18.95
2023-05-06T08:32:21.610Z,18.98
2023-05-06T08:35:24.874Z,18.88
2023-05-06T08:38:27.552Z,19.04
2023-05-06T08:41:31.539Z,19.36
2023-05-06T08:44:34.637Z,19.84
2023-05-06T08:47:39.326Z,19.95
2023-05-06T08:50:43.502Z,19.71
2023-05-06T08:53:49.238Z,19.75
2023-05-06T08:56:54.770Z,20.02
2023-05-06T08:59:58.054Z,20.20
2023-05-06T09:03:02.296Z,20.41
2023-05-06T09:06:06.284Z,20.65
2023-05-06T09:09:08.975Z,20.82
2023-05-06T09:12:13.564Z,21.05
2023-05-06T09:15:16.398Z,21.16
2023-05-06T09:18:20.758Z,20.91
2023-05-06T09:21:30.139Z,20.54
2023-05-06T09:24:32.989Z,20.35
2023-05-06T09:27:37.374Z,20.36
2023-05-06T09:30:40.750Z,20.37
2023-05-06T09:33:44.916Z,20.31
2023-05-06T09:36:47.797Z,20.53
2023-05-06T09:39:54.451Z,20.71
2023-05-06T09:42:58.080Z,20.99
2023-05-06T09:46:01.889Z,20.97
2023-05-06T09:49:06.959Z,21.15
2023-05-06T09:52:10.072Z,21.31
2023-05-06T09:55:13.123Z,21.51
2023-05-06T09:58:17.422Z,21.61
2023-05-06T10:01:32.674Z,21.69
2023-05-06T10:04:42.684Z,21.73
2023-05-06T10:07:49.753Z,21.93
2023-05-06T10:10:52.793Z,22.14
2023-05-06T10:13:55.835Z,22.35
2023-05-06T10:17:00.166Z,22.45
2023-05-06T10:20:07.796Z,22.51
2023-05-06T10:23:19.504Z,22.53
2023-05-06T10:26:23.632Z,22.30
2023-05-06T10:29:27.187Z,22.16
2023-05-06T10:32:33.508Z,21.98
2023-05-06T10:35:49.185Z,22.01
2023-05-06T10:38:56.386Z,22.31
2023-05-06T10:41:59.284Z,22.18
2023-05-06T10:45:03.947Z,22.40
2023-05-06T10:48:10.711Z,22.68
2023-05-06T10:51:26.004Z,22.90
2023-05-06T10:54:29.195Z,23.10
2023-05-06T10:57:41.632Z,23.09
2023-05-06T11:00:54.898Z,22.98
2023-05-06T11:03:57.992Z,23.01
2023-05-06T11:07:11.692Z,23.21
2023-05-06T11:10:15.343Z,23.34
2023-05-06T11:13:23.827Z,23.15
2023-05-06T11:16:49.372Z,22.73
2023-05-06T11:20:21.972Z,22.34
2023-05-06T11:24:07.645Z,21.88
2023-05-06T11:27:12.531Z,21.54
2023-05-06T11:30:17.299Z,21.33
2023-05-06T11:33:20.532Z,21.37
2023-05-06T11:36:23.988Z,21.82
2023-05-06T11:39:30.735Z,22.30
2023-05-06T11:42:34.028Z,22.61
2023-05-06T11:45:42.157Z,22.52
2023-05-06T11:48:45.059Z,22.20
2023-05-06T11:51:49.553Z,21.86
2023-05-06T11:54:54.291Z,21.75
2023-05-06T11:57:57.379Z,21.49
2023-05-06T12:01:02.436Z,21.33
2023-05-06T12:04:06.001Z,21.39
2023-05-06T12:07:12.166Z,21.64
2023-05-06T12:10:17.259Z,21.72
2023-05-06T12:13:21.075Z,21.96
2023-05-06T12:16:25.693Z,22.51
2023-05-06T12:19:30.430Z,22.82
2023-05-06T12:22:33.360Z,23.10
2023-05-06T12:25:37.681Z,23.29
2023-05-06T12:28:42.594Z,23.04
2023-05-06T12:31:47.250Z,22.73
2023-05-06T12:34:50.275Z,22.60
2023-05-06T12:37:53.299Z,22.56
2023-05-06T12:40:57.664Z,22.43
2023-05-06T12:44:00.532Z,22.27
2023-05-06T12:47:04.857Z,22.24
2023-05-06T12:50:08.045Z,22.29
2023-05-06T12:53:13.284Z,22.43
2023-05-06T12:56:17.447Z,22.64
2023-05-06T12:59:20.304Z,22.39
2023-05-06T13:02:23.176Z,22.33
2023-05-06T13:05:26.078Z,22.25
2023-05-06T13:08:29.596Z,22.22
2023-05-06T13:11:33.759Z,22.29
2023-05-06T13:14:39.281Z,22.33
2023-05-06T13:17:42.959Z,22.46
2023-05-06T13:20:45.940Z,22.39
2023-05-06T13:23:48.735Z,22.25
2023-05-06T13:26:52.974Z,22.37
2023-05-06T13:29:55.834Z,22.57
2023-05-06T13:32:58.734Z,22.92
2023-05-06T13:36:03.387Z,23.26
2023-05-06T13:39:08.808Z,23.15
2023-05-06T13:42:13.901Z,23.17
2023-05-06T13:45:16.718Z,23.08
2023-05-06T13:48:19.407Z,22.80
2023-05-06T13:51:22.060Z,22.78
2023-05-06T13:54:25.062Z,22.78
2023-05-06T13:57:29.119Z,22.81
2023-05-06T14:00:32.316Z,22.87
2023-05-06T14:03:35.062Z,22.92
2023-05-06T14:06:38.710Z,22.95
2023-05-06T14:09:41.467Z,22.98
2023-05-06T14:12:45.622Z,22.82
2023-05-06T14:15:48.373Z,22.88
2023-05-06T14:18:51.154Z,23.12
2023-05-06T14:21:53.862Z,23.27
2023-05-06T14:24:56.811Z,23.44
2023-05-06T14:28:00.987Z,23.57
2023-05-06T14:31:03.650Z,23.66
2023-05-06T14:34:06.413Z,23.67
2023-05-06T14:37:09.105Z,23.69
2023-05-06T14:40:12.297Z,23.71
2023-05-06T14:43:16.412Z,23.76
2023-05-06T14:46:19.189Z,23.65
2023-05-06T14:49:22.004Z,23.50
2023-05-06T14:52:24.713Z,23.42
2023-05-06T14:55:27.461Z,23.45
2023-05-06T14:58:31.872Z,23.26
2023-05-06T15:01:34.603Z,22.96
2023-05-06T15:04:38.057Z,22.71
2023-05-06T15:07:41.070Z,22.68
2023-05-06T15:10:44.390Z,22.73
2023-05-06T15:13:48.597Z,22.72
2023-05-06T15:16:51.489Z,22.58
2023-05-06T15:19:56.294Z,22.52
2023-05-06T15:22:59.254Z,22.37
2023-05-06T15:26:01.997Z,22.30
2023-05-06T15:29:06.573Z,22.31
2023-05-06T15:32:09.507Z,22.45
2023-05-06T15:35:12.489Z,22.62
2023-05-06T15:38:15.455Z,22.82
2023-05-06T15:41:18.834Z,22.91
2023-05-06T15:44:22.990Z,22.92
2023-05-06T15:47:25.889Z,22.93
2023-05-06T15:50:33.729Z,22.98
2023-05-06T15:53:40.057Z,22.95
2023-05-06T15:56:42.925Z,23.00
2023-05-06T15:59:47.213Z,22.91
2023-05-06T16:02:50.131Z,22.87
2023-05-06T16:05:54.573Z,22.78
2023-05-06T16:08:59.509Z,22.63
2023-05-06T16:12:03.990Z,22.47
2023-05-06T16:15:09.794Z,22.24
2023-05-06T16:18:12.919Z,22.20
2023-05-06T16:21:16.388Z,22.16
2023-05-06T16:24:19.350Z,22.07
2023-05-06T16:27:22.367Z,21.93
2023-05-06T16:30:27.171Z,21.77
2023-05-06T16:33:30.124Z,21.72
2023-05-06T16:36:32.903Z,21.61
2023-05-06T16:39:36.002Z,21.56
2023-05-06T16:42:39.118Z,21.48
2023-05-06T16:45:45.412Z,21.50
2023-05-06T16:48:48.210Z,21.55
2023-05-06T16:51:50.971Z,21.52
2023-05-06T16:54:54.830Z,21.41
2023-05-06T16:58:00.385Z,21.39
2023-05-06T17:01:07.963Z,21.31
2023-05-06T17:04:11.341Z,21.24
2023-05-06T17:07:14.353Z,21.22
2023-05-06T17:10:17.215Z,21.19
2023-05-06T17:13:20.004Z,21.18
2023-05-06T17:16:24.340Z,21.16
2023-05-06T17:19:27.107Z,21.10
2023-05-06T17:22:29.964Z,21.05
2023-05-06T17:25:32.903Z,21.02
2023-05-06T17:28:35.750Z,20.97
2023-05-06T17:31:39.958Z,20.91
2023-05-06T17:34:42.825Z,20.88
2023-05-06T17:37:46.425Z,20.81
2023-05-06T17:40:49.249Z,20.75
2023-05-06T17:43:52.045Z,20.65
2023-05-06T17:46:56.674Z,20.60
2023-05-06T17:49:59.613Z,20.50
2023-05-06T17:53:02.378Z,20.41
2023-05-06T17:56:05.799Z,20.33
2023-05-06T17:59:08.658Z,20.23
2023-05-06T18:02:15.817Z,20.11
2023-05-06T18:05:18.527Z,20.02
2023-05-06T18:08:21.380Z,19.89
2023-05-06T18:11:25.671Z,19.74
2023-05-06T18:14:28.592Z,19.60
2023-05-06T18:17:32.677Z,19.49
2023-05-06T18:20:35.517Z,19.30
2023-05-06T18:23:38.467Z,19.23
2023-05-06T18:26:45.524Z,19.10
2023-05-06T18:29:48.654Z,18.99
2023-05-06T18:32:54.541Z,18.86
2023-05-06T18:35:59.114Z,18.66
2023-05-06T18:39:02.437Z,18.58
2023-05-06T18:42:05.266Z,18.47
2023-05-06T18:45:09.278Z,18.38
2023-05-06T18:48:13.726Z,18.26
2023-05-06T18:51:18.177Z,18.14
2023-05-06T18:54:21.265Z,18.01
2023-05-06T18:57:26.401Z,17.96
2023-05-06T19:00:29.385Z,17.90
2023-05-06T19:03:35.609Z,17.80
2023-05-06T19:06:38.963Z,17.70
2023-05-06T19:09:43.181Z,17.63
2023-05-06T19:12:46.580Z,17.54
2023-05-06T19:15:49.236Z,17.52
2023-05-06T19:18:53.296Z,17.46
2023-05-06T19:21:57.128Z,17.43
2023-05-06T19:25:00.041Z,17.37
2023-05-06T19:28:02.748Z,17.36
2023-05-06T19:31:08.263Z,17.41
2023-05-06T19:34:12.540Z,17.40
2023-05-06T19:37:15.300Z,17.42
2023-05-06T19:40:18.864Z,17.45
2023-05-06T19:43:23.271Z,17.47
2023-05-06T19:46:26.222Z,17.50
2023-05-06T19:49:32.111Z,17.45
2023-05-06T19:52:34.924Z,17.44
2023-05-06T19:55:37.710Z,17.43
2023-05-06T19:58:41.186Z,17.41
2023-05-06T20:01:44.313Z,17.38
2023-05-06T20:04:48.504Z,17.37
2023-05-06T20:07:51.590Z,17.30
2023-05-06T20:10:54.590Z,17.24
2023-05-06T20:13:57.453Z,17.23
2023-05-06T20:17:02.454Z,17.18
2023-05-06T20:20:09.765Z,17.13
2023-05-06T20:23:12.646Z,17.13
2023-05-06T20:26:15.300Z,17.11
2023-05-06T20:29:18.775Z,17.09
2023-05-06T20:32:21.558Z,17.04
2023-05-06T20:35:26.048Z,17.02
2023-05-06T20:38:30.852Z,16.97
2023-05-06T20:41:33.702Z,16.88
2023-05-06T20:44:36.404Z,16.85
2023-05-06T20:47:39.158Z,16.83
2023-05-06T20:50:43.499Z,16.78
2023-05-06T20:53:47.401Z,16.77
2023-05-06T20:56:50.208Z,16.74
2023-05-06T20:59:53.028Z,16.67
2023-05-06T21:02:55.973Z,16.60
2023-05-06T21:06:00.201Z,16.60
2023-05-06T21:09:02.899Z,16.57
2023-05-06T21:12:06.248Z,16.51
2023-05-06T21:15:10.197Z,16.46
2023-05-06T21:18:13.078Z,16.46
2023-05-06T21:21:17.259Z,16.39
2023-05-06T21:24:20.080Z,16.36
2023-05-06T21:27:22.746Z,16.32
2023-05-06T21:30:25.649Z,16.24
2023-05-06T21:33:28.603Z,16.17
2023-05-06T21:36:32.691Z,16.12
2023-05-06T21:39:35.794Z,16.06
2023-05-06T21:42:38.576Z,15.96
2023-05-06T21:45:44.363Z,15.95
2023-05-06T21:48:47.038Z,15.92
2023-05-06T21:51:51.484Z,15.81
2023-05-06T21:54:54.838Z,15.76
2023-05-06T21:57:57.717Z,15.63
2023-05-06T22:01:00.423Z,15.57
2023-05-06T22:04:04.828Z,15.51
2023-05-06T22:07:11.474Z,15.41
2023-05-06T22:10:16.727Z,15.39
2023-05-06T22:13:22.896Z,15.38
2023-05-06T22:16:26.925Z,15.37
2023-05-06T22:19:29.881Z,15.30
2023-05-06T22:22:34.442Z,15.30
2023-05-06T22:25:38.112Z,15.33
2023-05-06T22:28:41.046Z,15.30
2023-05-06T22:31:43.971Z,15.22
2023-05-06T22:34:46.682Z,15.16
2023-05-06T22:37:50.813Z,15.14
2023-05-06T22:40:53.445Z,15.06
2023-05-06T22:43:57.221Z,15.01
2023-05-06T22:46:59.923Z,14.99
2023-05-06T22:50:02.878Z,14.97
2023-05-06T22:53:14.463Z,14.94
2023-05-06T22:56:19.014Z,14.91
2023-05-06T22:59:21.828Z,14.89
2023-05-06T23:02:24.569Z,14.86
2023-05-06T23:05:27.281Z,14.78
2023-05-06T23:08:31.525Z,14.76
2023-05-06T23:11:34.458Z,14.70
2023-05-06T23:14:37.208Z,14.69
2023-05-06T23:17:40.451Z,14.64
2023-05-06T23:20:43.315Z,14.59
2023-05-06T23:23:47.452Z,14.58
2023-05-06T23:26:50.278Z,14.56
2023-05-06T23:29:53.020Z,14.55
2023-05-06T23:32:55.815Z,14.54
2023-05-06T23:36:00.577Z,14.54
2023-05-06T23:39:04.921Z,14.51
2023-05-06T23:42:07.681Z,14.52
2023-05-06T23:45:11.775Z,14.58
2023-05-06T23:48:14.828Z,14.60
2023-05-06T23:51:17.591Z,14.62
2023-05-06T23:54:22.022Z,14.64
2023-05-06T23:57:24.845Z,14.61
